createdAt,value
2024-01-03T00:01:55.638Z,47.15
2024-01-03T00:04:04.776Z,46.42
2024-01-03T00:06:13.781Z,48.55
2024-01-03T00:08:27.295Z,44.72
2024-01-03T00:10:45.866Z,48.35
2024-01-03T00:12:52.903Z,44.97
2024-01-03T00:15:00.343Z,44.83
2024-01-03T00:17:10.124Z,45.03
2024-01-03T00:19:27.465Z,50.15
2024-01-03T00:21:36.262Z,53.88
2024-01-03T00:23:47.237Z,58.05
2024-01-03T00:25:54.625Z,57.85
2024-01-03T00:28:03.118Z,57.53
2024-01-03T00:30:12.795Z,44.78
2024-01-03T00:32:22.801Z,63.17
2024-01-03T00:34:43.372Z,59.85
2024-01-03T00:36:52.591Z,51.35
2024-01-03T00:39:00.145Z,57.72
2024-01-03T00:41:11.135Z,49.10
2024-01-03T00:43:18.441Z,45.50
2024-01-03T00:45:26.233Z,42.53
2024-01-03T00:47:33.299Z,44.55
2024-01-03T00:49:43.082Z,42.55
2024-01-03T00:51:52.724Z,45.55
2024-01-03T00:54:00.373Z,46.38
2024-01-03T00:56:08.454Z,50.47
2024-01-03T00:58:16.543Z,48.17
2024-01-03T01:00:23.943Z,49.85
2024-01-03T01:02:31.298Z,49.00
2024-01-03T01:04:41.691Z,48.40
2024-01-03T01:06:50.415Z,56.33
2024-01-03T01:08:57.907Z,50.40
2024-01-03T01:11:04.024Z,48.33
2024-01-03T01:13:11.174Z,49.40
2024-01-03T01:15:18.506Z,45.92
2024-01-03T01:17:27.374Z,45.70
2024-01-03T01:19:34.782Z,50.42
2024-01-03T01:21:45.839Z,49.50
2024-01-03T01:23:55.165Z,40.85
2024-01-03T01:26:02.324Z,41.70
2024-01-03T01:28:10.351Z,43.15
2024-01-03T01:30:18.828Z,41.17
2024-01-03T01:32:25.305Z,50.40
2024-01-03T01:34:32.619Z,41.47
2024-01-03T01:36:40.122Z,39.05
2024-01-03T01:38:46.690Z,41.78
2024-01-03T01:40:56.111Z,43.63
2024-01-03T01:43:03.242Z,42.65
2024-01-03T01:45:11.792Z,31.50
2024-01-03T01:47:18.994Z,36.55
2024-01-03T01:49:26.528Z,30.42
2024-01-03T01:51:34.826Z,30.58
2024-01-03T01:53:41.507Z,28.60
2024-01-03T01:55:49.294Z,32.90
2024-01-03T01:57:58.476Z,32.80
2024-01-03T02:00:06.485Z,30.70
2024-01-03T02:02:19.512Z,29.50
2024-01-03T02:04:26.882Z,27.10
2024-01-03T02:06:34.802Z,28.65
2024-01-03T02:08:41.901Z,26.90
2024-01-03T02:10:47.918Z,26.58
2024-01-03T02:12:56.884Z,26.23
2024-01-03T02:15:04.245Z,26.33
2024-01-03T02:17:11.870Z,26.58
2024-01-03T02:19:19.366Z,20.92
2024-01-03T02:21:28.377Z,20.77
2024-01-03T02:23:35.881Z,27.25
2024-01-03T02:25:42.752Z,26.75
2024-01-03T02:27:50.805Z,21.35
2024-01-03T02:29:57.870Z,26.30
2024-01-03T02:32:05.104Z,22.77
2024-01-03T02:34:12.268Z,22.10
2024-01-03T02:36:19.929Z,18.25
2024-01-03T02:38:28.980Z,22.75
2024-01-03T02:40:36.288Z,17.05
2024-01-03T02:42:43.369Z,16.60
2024-01-03T02:44:50.740Z,14.63
2024-01-03T02:46:58.206Z,15.45
2024-01-03T02:49:05.929Z,16.08
2024-01-03T02:51:21.005Z,16.10
2024-01-03T02:53:30.370Z,15.95
2024-01-03T02:55:37.467Z,17.58
2024-01-03T02:57:44.909Z,16.50
2024-01-03T02:59:50.535Z,14.65
2024-01-03T03:01:57.881Z,13.38
2024-01-03T03:04:05.338Z,14.30
2024-01-03T03:06:13.346Z,12.73
2024-01-03T03:08:20.592Z,12.85
2024-01-03T03:10:29.946Z,13.13
2024-01-03T03:12:37.016Z,9.98
2024-01-03T03:14:44.326Z,10.13
2024-01-03T03:16:51.323Z,11.02
2024-01-03T03:18:58.779Z,12.07
2024-01-03T03:21:06.106Z,10.35
2024-01-03T03:23:13.668Z,10.95
2024-01-03T03:25:20.876Z,10.38
2024-01-03T03:27:29.879Z,10.75
2024-01-03T03:29:35.649Z,12.35
2024-01-03T03:31:42.881Z,12.50
2024-01-03T03:33:48.823Z,12.93
2024-01-03T03:35:56.330Z,11.13
2024-01-03T03:38:03.464Z,10.10
2024-01-03T03:40:12.072Z,11.90
2024-01-03T03:42:20.695Z,10.57
2024-01-03T03:44:30.246Z,6.97
2024-01-03T03:46:37.476Z,9.65
2024-01-03T03:48:44.962Z,11.27
2024-01-03T03:50:52.178Z,12.20
2024-01-03T03:52:59.246Z,10.85
2024-01-03T03:55:06.797Z,8.38
2024-01-03T03:57:14.284Z,10.15
2024-01-03T03:59:20.169Z,10.55
2024-01-03T04:01:29.334Z,20.40
2024-01-03T04:03:35.022Z,10.80
2024-01-03T04:05:43.161Z,7.55
2024-01-03T04:07:50.549Z,5.38
2024-01-03T04:09:58.334Z,6.05
2024-01-03T04:12:05.536Z,5.75
2024-01-03T04:14:11.687Z,11.90
2024-01-03T04:16:18.764Z,13.75
2024-01-03T04:18:27.890Z,10.15
2024-01-03T04:20:35.293Z,7.75
2024-01-03T04:22:46.937Z,3.53
2024-01-03T04:24:54.061Z,4.82
2024-01-03T04:27:01.643Z,4.95
2024-01-03T04:29:10.266Z,6.05
2024-01-03T04:31:17.751Z,5.03
2024-01-03T04:33:27.008Z,4.97
2024-01-03T04:35:32.996Z,3.78
2024-01-03T04:37:40.518Z,3.80
2024-01-03T04:39:47.803Z,5.03
2024-01-03T04:41:55.692Z,5.65
2024-01-03T04:44:03.492Z,16.73
2024-01-03T04:46:11.032Z,5.28
2024-01-03T04:48:18.564Z,4.55
2024-01-03T04:50:27.777Z,6.47
2024-01-03T04:52:35.193Z,5.53
2024-01-03T04:54:42.787Z,8.52
2024-01-03T04:56:50.168Z,6.20
2024-01-03T04:58:57.349Z,5.57
2024-01-03T05:01:04.461Z,5.00
2024-01-03T05:03:11.110Z,6.35
2024-01-03T05:05:18.646Z,5.10
2024-01-03T05:07:28.531Z,6.80
2024-01-03T05:09:36.984Z,5.40
2024-01-03T05:11:43.021Z,8.30
2024-01-03T05:13:50.191Z,7.20
2024-01-03T05:15:57.408Z,6.22
2024-01-03T05:18:05.214Z,6.03
2024-01-03T05:20:13.639Z,6.78
2024-01-03T05:22:20.650Z,5.95
2024-01-03T05:24:30.902Z,7.82
2024-01-03T05:26:38.063Z,21.45
2024-01-03T05:28:45.107Z,24.17
2024-01-03T05:30:52.316Z,6.82
2024-01-03T05:32:59.590Z,7.75
2024-01-03T05:35:07.415Z,7.20
2024-01-03T05:37:14.768Z,5.35
2024-01-03T05:39:22.687Z,6.95
2024-01-03T05:41:31.486Z,9.27
2024-01-03T05:43:38.930Z,10.05
2024-01-03T05:45:46.096Z,5.45
2024-01-03T05:47:53.565Z,6.57
2024-01-03T05:50:00.909Z,7.82
2024-01-03T05:52:08.880Z,6.03
2024-01-03T05:54:16.057Z,4.75
2024-01-03T05:56:23.813Z,5.15
2024-01-03T05:58:32.784Z,6.78
2024-01-03T06:00:40.320Z,5.68
2024-01-03T06:02:47.671Z,5.05
2024-01-03T06:04:58.138Z,4.47
2024-01-03T06:09:13.094Z,4.35
2024-01-03T06:11:20.577Z,11.65
2024-01-03T06:13:28.010Z,5.28
2024-01-03T06:15:37.319Z,6.68
2024-01-03T06:17:44.734Z,4.40
2024-01-03T06:19:52.562Z,4.50
2024-01-03T06:21:59.816Z,6.43
2024-01-03T06:24:07.742Z,4.78
2024-01-03T06:26:14.872Z,6.72
2024-01-03T06:28:23.515Z,5.35
2024-01-03T06:30:31.142Z,4.88
2024-01-03T06:32:40.696Z,6.63
2024-01-03T06:34:48.194Z,4.85
2024-01-03T06:36:55.763Z,4.82
2024-01-03T06:39:02.892Z,6.85
2024-01-03T06:41:11.613Z,5.22
2024-01-03T06:43:18.738Z,7.15
2024-01-03T06:45:26.385Z,4.10
2024-01-03T06:47:33.580Z,4.93
2024-01-03T06:49:42.871Z,6.32
2024-01-03T06:51:50.029Z,10.90
2024-01-03T06:53:57.514Z,8.88
2024-01-03T06:56:04.959Z,6.15
2024-01-03T06:58:12.543Z,7.55
2024-01-03T07:00:20.314Z,6.60
2024-01-03T07:02:28.634Z,6.55
2024-01-03T07:04:35.672Z,5.80
2024-01-03T07:06:43.611Z,6.90
2024-01-03T07:08:51.414Z,7.13
2024-01-03T07:10:57.474Z,7.15
2024-01-03T07:13:04.961Z,5.15
2024-01-03T07:15:12.961Z,6.68
2024-01-03T07:17:20.273Z,7.90
2024-01-03T07:19:27.650Z,7.63
2024-01-03T07:21:33.431Z,7.00
2024-01-03T07:23:43.075Z,6.38
2024-01-03T07:25:50.304Z,6.50
2024-01-03T07:27:57.791Z,5.82
2024-01-03T07:30:05.031Z,4.30
2024-01-03T07:32:12.719Z,4.63
2024-01-03T07:34:20.112Z,7.38
2024-01-03T07:36:27.955Z,5.53
2024-01-03T07:38:35.169Z,5.55
2024-01-03T07:40:44.418Z,9.95
2024-01-03T07:42:51.599Z,7.38
2024-01-03T07:44:59.257Z,4.47
2024-01-03T07:47:06.742Z,4.60
2024-01-03T07:49:15.455Z,5.40
2024-01-03T07:51:23.088Z,6.50
2024-01-03T07:53:30.950Z,5.63
2024-01-03T07:55:38.358Z,5.00
2024-01-03T07:57:47.251Z,5.18
2024-01-03T07:59:54.454Z,4.40
2024-01-03T08:02:00.224Z,7.05
2024-01-03T08:04:08.320Z,6.55
2024-01-03T08:06:22.922Z,4.78
2024-01-03T08:08:30.594Z,4.90
2024-01-03T08:10:37.763Z,5.10
2024-01-03T08:12:48.305Z,5.82
2024-01-03T08:14:56.620Z,5.90
2024-01-03T08:17:04.181Z,5.40
2024-01-03T08:19:11.500Z,5.45
2024-01-03T08:21:19.234Z,5.18
2024-01-03T08:23:26.445Z,4.60
2024-01-03T08:25:33.796Z,5.30
2024-01-03T08:27:41.393Z,5.35
2024-01-03T08:29:50.728Z,4.80
2024-01-03T08:31:57.903Z,6.53
2024-01-03T08:34:05.658Z,7.18
2024-01-03T08:36:17.088Z,3.92
2024-01-03T08:40:30.700Z,6.93
2024-01-03T08:42:38.071Z,5.13
2024-01-03T08:44:45.032Z,3.83
2024-01-03T08:46:54.137Z,4.68
2024-01-03T08:49:01.606Z,6.13
2024-01-03T08:51:14.377Z,5.70
2024-01-03T08:53:23.037Z,8.20
2024-01-03T08:55:30.852Z,6.03
2024-01-03T08:57:38.553Z,5.43
2024-01-03T08:59:46.450Z,6.50
2024-01-03T09:01:58.956Z,3.97
2024-01-03T09:04:07.221Z,4.88
2024-01-03T09:06:15.177Z,5.47
2024-01-03T09:08:22.580Z,4.78
2024-01-03T09:10:29.831Z,6.63
2024-01-03T09:12:37.013Z,5.38
2024-01-03T09:14:46.523Z,7.15
2024-01-03T09:16:53.992Z,6.03
2024-01-03T09:19:06.828Z,7.18
2024-01-03T09:21:15.569Z,8.25
2024-01-03T09:23:23.239Z,5.43
2024-01-03T09:25:30.491Z,4.95
2024-01-03T09:27:37.940Z,4.28
2024-01-03T09:29:46.561Z,4.72
2024-01-03T09:31:53.732Z,4.47
2024-01-03T09:34:03.176Z,4.32
2024-01-03T09:36:11.145Z,9.90
2024-01-03T09:38:18.966Z,7.18
2024-01-03T09:40:26.289Z,4.20
2024-01-03T09:42:35.121Z,4.85
2024-01-03T09:44:43.161Z,7.00
2024-01-03T09:46:52.137Z,5.75
2024-01-03T09:48:59.620Z,5.43
2024-01-03T09:51:09.829Z,5.50
2024-01-03T09:53:18.839Z,5.43
2024-01-03T09:55:26.343Z,6.90
2024-01-03T09:57:34.454Z,6.95
2024-01-03T09:59:42.038Z,11.07
2024-01-03T10:02:00.543Z,13.65
2024-01-03T10:04:09.886Z,10.18
2024-01-03T10:06:20.973Z,6.15
2024-01-03T10:10:36.573Z,6.50
2024-01-03T10:12:45.101Z,8.15
2024-01-03T10:14:52.451Z,8.27
2024-01-03T10:17:13.588Z,7.57
2024-01-03T10:19:22.664Z,10.88
2024-01-03T10:21:31.993Z,9.30
2024-01-03T10:23:39.313Z,11.20
2024-01-03T10:25:47.421Z,14.68
2024-01-03T10:28:03.335Z,11.15
2024-01-03T10:30:19.112Z,12.95
2024-01-03T10:32:27.002Z,10.07
2024-01-03T10:34:34.867Z,10.77
2024-01-03T10:36:43.011Z,8.73
2024-01-03T10:38:50.715Z,9.13
2024-01-03T10:40:58.388Z,7.65
2024-01-03T10:43:06.590Z,8.30
2024-01-03T10:45:14.661Z,11.52
2024-01-03T10:47:22.171Z,7.82
2024-01-03T10:49:29.871Z,8.82
2024-01-03T10:51:48.840Z,9.30
2024-01-03T10:54:01.102Z,9.68
2024-01-03T10:56:09.463Z,13.85
2024-01-03T10:58:18.577Z,12.88
2024-01-03T11:00:39.899Z,11.88
2024-01-03T11:02:58.005Z,15.07
2024-01-03T11:05:10.450Z,26.38
2024-01-03T11:07:21.959Z,14.05
2024-01-03T11:11:38.542Z,21.77
2024-01-03T11:13:46.527Z,18.02
2024-01-03T11:15:53.549Z,12.30
2024-01-03T11:18:02.565Z,11.50
2024-01-03T11:20:14.659Z,11.85
2024-01-03T11:22:22.000Z,12.63
2024-01-03T11:25:01.158Z,13.63
2024-01-03T11:27:09.073Z,13.65
2024-01-03T11:29:48.152Z,15.77
2024-01-03T11:32:04.266Z,13.35
2024-01-03T11:34:42.560Z,13.05
2024-01-03T11:36:50.622Z,22.30
2024-01-03T11:38:57.767Z,21.42
2024-01-03T11:41:07.560Z,17.15
2024-01-03T11:43:14.885Z,18.30
2024-01-03T11:45:24.796Z,16.55
2024-01-03T11:47:30.871Z,19.77
2024-01-03T11:49:38.511Z,20.15
2024-01-03T11:51:46.183Z,17.63
2024-01-03T11:53:53.894Z,18.75
2024-01-03T11:56:01.056Z,21.00
2024-01-03T11:58:10.601Z,24.20
2024-01-03T12:00:19.749Z,25.30
2024-01-03T12:02:25.809Z,27.20
2024-01-03T12:04:33.348Z,22.90
2024-01-03T12:06:41.544Z,22.80
2024-01-03T12:08:48.881Z,23.48
2024-01-03T12:10:56.261Z,26.02
2024-01-03T12:13:03.513Z,24.92
2024-01-03T12:15:25.919Z,26.13
2024-01-03T12:17:37.854Z,25.23
2024-01-03T12:19:46.055Z,28.83
2024-01-03T12:21:59.327Z,27.33
2024-01-03T12:24:07.503Z,29.00
2024-01-03T12:26:15.023Z,27.80
2024-01-03T12:28:24.655Z,27.05
2024-01-03T12:30:35.225Z,25.52
2024-01-03T12:32:41.561Z,23.87
2024-01-03T12:34:50.099Z,25.92
2024-01-03T12:36:57.588Z,24.23
2024-01-03T12:39:05.731Z,25.67
2024-01-03T12:41:13.395Z,33.78
2024-01-03T12:43:21.463Z,27.50
2024-01-03T12:45:29.366Z,29.63
2024-01-03T12:47:38.376Z,32.83
2024-01-03T12:49:46.754Z,50.15
2024-01-03T12:51:58.413Z,32.38
2024-01-03T12:54:06.065Z,56.25
2024-01-03T12:56:13.083Z,59.17
2024-01-03T12:58:19.085Z,34.67
2024-01-03T13:00:26.022Z,35.78
2024-01-03T13:02:33.584Z,39.40
2024-01-03T13:04:41.358Z,36.85
2024-01-03T13:06:49.067Z,42.63
2024-01-03T13:08:55.164Z,41.67
2024-01-03T13:11:02.637Z,51.67
2024-01-03T13:13:11.291Z,53.40
2024-01-03T13:15:19.141Z,73.45
2024-01-03T13:17:27.775Z,53.72
2024-01-03T13:19:35.538Z,44.65
2024-01-03T13:21:44.029Z,38.80
2024-01-03T13:23:52.554Z,43.63
2024-01-03T13:25:59.976Z,52.10
2024-01-03T13:28:08.288Z,49.28
2024-01-03T13:30:16.770Z,64.78
2024-01-03T13:32:24.670Z,90.57
2024-01-03T13:34:32.150Z,76.40
2024-01-03T13:36:39.873Z,72.97
2024-01-03T13:38:48.853Z,98.45
2024-01-03T13:40:56.530Z,90.13
2024-01-03T13:43:03.672Z,77.40
2024-01-03T13:45:13.942Z,76.18
2024-01-03T13:47:23.213Z,62.55
2024-01-03T13:49:30.919Z,76.50
2024-01-03T13:51:38.289Z,63.22
2024-01-03T13:53:47.771Z,65.10
2024-01-03T13:55:54.869Z,69.28
2024-01-03T13:58:05.128Z,70.90
2024-01-03T14:00:13.194Z,64.22
2024-01-03T14:02:20.687Z,62.42
2024-01-03T14:04:27.908Z,70.65
2024-01-03T14:06:35.451Z,55.15
2024-01-03T14:08:43.620Z,57.28
2024-01-03T14:10:52.857Z,61.38
2024-01-03T14:13:00.282Z,57.60
2024-01-03T14:15:09.399Z,63.08
2024-01-03T14:17:17.263Z,59.55
2024-01-03T14:19:24.570Z,61.90
2024-01-03T14:21:32.233Z,55.78
2024-01-03T14:23:38.120Z,54.67
2024-01-03T14:25:45.636Z,49.00
2024-01-03T14:27:55.370Z,56.15
2024-01-03T14:30:05.380Z,48.63
2024-01-03T14:32:14.117Z,49.42
2024-01-03T14:34:24.642Z,52.40
2024-01-03T14:36:31.878Z,52.55
2024-01-03T14:38:40.993Z,53.67
2024-01-03T14:40:51.060Z,50.35
2024-01-03T14:43:05.824Z,51.13
2024-01-03T14:45:14.213Z,50.03
2024-01-03T14:47:22.172Z,52.70
2024-01-03T14:49:36.495Z,46.63
2024-01-03T14:51:43.697Z,51.35
2024-01-03T14:53:51.458Z,48.03
2024-01-03T14:55:59.498Z,45.28
2024-01-03T14:58:08.474Z,49.22
2024-01-03T15:00:16.574Z,48.63
2024-01-03T15:02:30.441Z,47.28
2024-01-03T15:04:42.497Z,50.90
2024-01-03T15:06:59.083Z,45.83
2024-01-03T15:09:11.705Z,41.20
2024-01-03T15:11:18.946Z,44.22
2024-01-03T15:13:28.527Z,39.60
2024-01-03T15:15:37.571Z,37.42
2024-01-03T15:17:47.383Z,30.20
2024-01-03T15:19:54.499Z,28.08
2024-01-03T15:22:08.271Z,34.17
2024-01-03T15:24:16.202Z,33.33
2024-01-03T15:26:23.962Z,24.67
2024-01-03T15:28:32.946Z,22.70
2024-01-03T15:30:41.497Z,26.70
2024-01-03T15:32:50.696Z,19.10
2024-01-03T15:34:58.868Z,23.77
2024-01-03T15:37:09.370Z,25.02
2024-01-03T15:39:16.640Z,27.95
2024-01-03T15:41:24.194Z,18.90
2024-01-03T15:43:33.681Z,19.13
2024-01-03T15:45:40.852Z,17.95
2024-01-03T15:47:49.958Z,21.92
2024-01-03T15:50:00.654Z,20.70
2024-01-03T15:52:10.548Z,17.25
2024-01-03T15:54:25.067Z,19.05
2024-01-03T15:56:35.898Z,21.13
2024-01-03T15:58:44.827Z,18.23
2024-01-03T16:00:52.952Z,16.65
2024-01-03T16:03:00.224Z,16.75
2024-01-03T16:05:08.342Z,20.10
2024-01-03T16:07:14.270Z,20.33
2024-01-03T16:09:23.622Z,18.67
2024-01-03T16:11:30.909Z,19.20
2024-01-03T16:13:39.039Z,19.88
2024-01-03T16:15:48.020Z,19.02
2024-01-03T16:17:54.221Z,17.38
2024-01-03T16:20:05.102Z,19.48
2024-01-03T16:22:12.885Z,18.55
2024-01-03T16:24:19.952Z,16.75
2024-01-03T16:26:27.269Z,17.30
2024-01-03T16:28:34.696Z,17.10
2024-01-03T16:30:42.086Z,14.52
2024-01-03T16:32:51.407Z,13.85
2024-01-03T16:34:59.724Z,16.42
2024-01-03T16:37:10.085Z,20.35
2024-01-03T16:39:17.389Z,12.93
2024-01-03T16:41:24.428Z,14.65
2024-01-03T16:43:31.942Z,13.48
2024-01-03T16:45:39.114Z,15.18
2024-01-03T16:47:46.354Z,16.10
2024-01-03T16:49:56.357Z,15.32
2024-01-03T16:52:03.999Z,15.75
2024-01-03T16:54:11.956Z,13.20
2024-01-03T16:56:19.524Z,16.25
2024-01-03T16:58:26.916Z,17.77
2024-01-03T17:00:36.246Z,16.27
2024-01-03T17:02:43.666Z,16.58
2024-01-03T17:04:50.826Z,15.73
2024-01-03T17:06:59.554Z,13.20
2024-01-03T17:09:07.016Z,12.85
2024-01-03T17:11:16.069Z,13.02
2024-01-03T17:13:23.094Z,10.35
2024-01-03T17:15:29.988Z,8.73
2024-01-03T17:17:37.441Z,7.78
2024-01-03T17:19:45.831Z,9.40
2024-01-03T17:21:53.248Z,9.38
2024-01-03T17:24:02.134Z,9.50
2024-01-03T17:26:09.846Z,13.10
2024-01-03T17:28:17.965Z,8.85
2024-01-03T17:30:25.336Z,10.23
2024-01-03T17:32:32.489Z,7.03
2024-01-03T17:34:40.086Z,6.63
2024-01-03T17:36:47.783Z,7.05
2024-01-03T17:38:55.487Z,7.97
2024-01-03T17:41:08.453Z,7.22
2024-01-03T17:43:15.574Z,6.82
2024-01-03T17:45:23.432Z,7.22
2024-01-03T17:47:30.380Z,7.93
2024-01-03T17:49:38.727Z,7.05
2024-01-03T17:51:45.956Z,7.10
2024-01-03T17:53:52.245Z,7.68
2024-01-03T17:55:59.251Z,8.20
2024-01-03T17:58:08.627Z,6.00
2024-01-03T18:00:17.032Z,8.18
2024-01-03T18:02:24.717Z,4.68
2024-01-03T18:04:31.632Z,7.50
2024-01-03T18:06:38.875Z,6.88
2024-01-03T18:08:46.399Z,6.18
2024-01-03T18:10:53.826Z,7.65
2024-01-03T18:13:01.277Z,8.95
2024-01-03T18:15:10.948Z,5.32
2024-01-03T18:17:18.099Z,5.35
2024-01-03T18:19:25.201Z,6.85
2024-01-03T18:21:32.204Z,4.22
2024-01-03T18:23:39.504Z,3.92
2024-01-03T18:25:46.652Z,4.70
2024-01-03T18:27:54.532Z,4.18
2024-01-03T18:30:01.976Z,3.03
2024-01-03T18:32:11.623Z,4.93
2024-01-03T18:34:18.698Z,4.47
2024-01-03T18:36:26.413Z,5.00
2024-01-03T18:38:33.751Z,3.20
2024-01-03T18:40:41.170Z,3.60
2024-01-03T18:42:50.937Z,4.13
2024-01-03T18:44:58.137Z,3.60
2024-01-03T18:47:05.848Z,3.65
2024-01-03T18:49:15.386Z,4.38
2024-01-03T18:51:23.478Z,5.00
2024-01-03T18:53:30.611Z,5.32
2024-01-03T18:55:37.625Z,3.30
2024-01-03T18:57:45.036Z,3.45
2024-01-03T18:59:52.404Z,5.15
2024-01-03T19:01:59.641Z,3.50
2024-01-03T19:04:07.305Z,3.13
2024-01-03T19:06:16.600Z,4.28
2024-01-03T19:08:23.746Z,2.50
2024-01-03T19:10:31.499Z,2.65
2024-01-03T19:12:40.923Z,3.78
2024-01-03T19:14:48.255Z,2.25
2024-01-03T19:16:57.582Z,4.85
2024-01-03T19:19:07.853Z,3.30
2024-01-03T19:21:16.526Z,2.67
2024-01-03T19:23:22.410Z,3.28
2024-01-03T19:25:29.337Z,3.80
2024-01-03T19:27:36.715Z,3.55
2024-01-03T19:29:43.861Z,4.72
2024-01-03T19:31:51.030Z,2.88
2024-01-03T19:33:58.584Z,3.90
2024-01-03T19:36:06.279Z,2.35
2024-01-03T19:38:16.324Z,2.53
2024-01-03T19:40:21.952Z,3.72
2024-01-03T19:42:29.142Z,2.40
2024-01-03T19:44:36.511Z,3.70
2024-01-03T19:46:53.829Z,4.18
2024-01-03T19:49:02.109Z,3.10
2024-01-03T19:51:24.527Z,3.40
2024-01-03T19:53:37.339Z,2.50
2024-01-03T19:55:45.003Z,2.97
2024-01-03T19:57:50.808Z,2.53
2024-01-03T19:59:58.230Z,2.33
2024-01-03T20:02:06.961Z,2.38
2024-01-03T20:04:14.519Z,3.03
2024-01-03T20:06:25.745Z,2.33
2024-01-03T20:08:35.083Z,3.33
2024-01-03T20:10:42.358Z,3.10
2024-01-03T20:12:49.848Z,5.00
2024-01-03T20:14:57.814Z,3.78
2024-01-03T20:17:05.836Z,1.60
2024-01-03T20:19:13.329Z,2.78
2024-01-03T20:21:20.790Z,3.40
2024-01-03T20:23:28.651Z,4.80
2024-01-03T20:25:38.060Z,4.03
2024-01-03T20:27:47.592Z,1.92
2024-01-03T20:29:54.653Z,2.83
2024-01-03T20:32:01.844Z,5.07
2024-01-03T20:34:09.127Z,2.22
2024-01-03T20:36:22.127Z,3.50
2024-01-03T20:38:29.981Z,2.83
2024-01-03T20:40:39.441Z,3.10
2024-01-03T20:42:46.606Z,4.82
2024-01-03T20:44:54.223Z,2.90
2024-01-03T20:47:01.433Z,3.38
2024-01-03T20:49:12.397Z,4.70
2024-01-03T20:51:19.988Z,3.30
2024-01-03T20:53:31.502Z,5.93
2024-01-03T20:55:40.344Z,4.80
2024-01-03T20:57:48.116Z,7.25
2024-01-03T20:59:55.393Z,3.72
2024-01-03T21:02:03.217Z,4.05
2024-01-03T21:04:10.913Z,3.60
2024-01-03T21:06:19.775Z,3.00
2024-01-03T21:08:26.865Z,5.53
2024-01-03T21:10:34.261Z,3.95
2024-01-03T21:12:43.485Z,4.25
2024-01-03T21:14:51.298Z,3.00
2024-01-03T21:17:01.612Z,4.60
2024-01-03T21:19:18.761Z,3.72
2024-01-03T21:21:25.884Z,5.18
2024-01-03T21:23:35.044Z,2.95
2024-01-03T21:25:42.436Z,4.60
2024-01-03T21:27:52.816Z,4.25
2024-01-03T21:30:00.982Z,3.65
2024-01-03T21:32:08.957Z,3.15
2024-01-03T21:34:16.172Z,3.92
2024-01-03T21:36:23.631Z,4.50
2024-01-03T21:38:29.854Z,5.40
2024-01-03T21:40:37.328Z,3.22
2024-01-03T21:42:47.477Z,3.97
2024-01-03T21:44:57.363Z,3.90
2024-01-03T21:47:04.508Z,5.07
2024-01-03T21:49:12.240Z,4.43
2024-01-03T21:51:20.097Z,4.95
2024-01-03T21:53:27.697Z,4.18
2024-01-03T21:55:35.588Z,3.40
2024-01-03T21:57:42.963Z,3.20
2024-01-03T21:59:50.519Z,4.47
2024-01-03T22:01:59.223Z,6.10
2024-01-03T22:04:06.776Z,6.20
2024-01-03T22:06:14.115Z,4.30
2024-01-03T22:08:21.852Z,4.38
2024-01-03T22:10:32.605Z,4.80
2024-01-03T22:12:38.559Z,6.18
2024-01-03T22:14:47.898Z,5.80
2024-01-03T22:16:55.412Z,7.80
2024-01-03T22:19:04.813Z,5.10
2024-01-03T22:21:19.559Z,7.75
2024-01-03T22:23:26.835Z,8.48
2024-01-03T22:25:34.294Z,6.63
2024-01-03T22:27:42.311Z,5.95
2024-01-03T22:29:49.868Z,6.63
2024-01-03T22:31:57.073Z,8.32
2024-01-03T22:34:06.824Z,7.68
2024-01-03T22:36:18.823Z,6.07
2024-01-03T22:38:26.064Z,10.07
2024-01-03T22:40:33.761Z,8.50
2024-01-03T22:42:41.170Z,6.97
2024-01-03T22:44:48.444Z,7.20
2024-01-03T22:46:56.063Z,7.82
2024-01-03T22:49:05.075Z,6.78
2024-01-03T22:51:12.993Z,7.05
2024-01-03T22:53:20.208Z,8.23
2024-01-03T22:55:27.764Z,7.53
2024-01-03T22:57:34.928Z,9.13
2024-01-03T22:59:42.602Z,10.75
2024-01-03T23:01:50.431Z,11.82
2024-01-03T23:03:58.602Z,8.73
2024-01-03T23:06:08.050Z,9.65
2024-01-03T23:08:16.373Z,8.43
2024-01-03T23:10:23.455Z,15.38
2024-01-03T23:12:30.728Z,10.75
2024-01-03T23:14:38.361Z,8.05
2024-01-03T23:16:46.136Z,13.93
2024-01-03T23:18:54.197Z,11.65
2024-01-03T23:21:02.237Z,11.05
2024-01-03T23:23:11.459Z,13.23
2024-01-03T23:25:19.295Z,9.77
2024-01-03T23:27:26.884Z,10.85
2024-01-03T23:29:33.896Z,14.07
2024-01-03T23:31:41.184Z,15.43
2024-01-03T23:33:48.663Z,14.70
2024-01-03T23:35:56.214Z,16.02
2024-01-03T23:38:05.516Z,15.63
2024-01-03T23:40:15.865Z,14.85
2024-01-03T23:42:23.203Z,13.07
2024-01-03T23:44:30.586Z,15.65
2024-01-03T23:46:37.877Z,11.75
2024-01-03T23:48:45.455Z,15.52
2024-01-03T23:50:52.766Z,13.23
2024-01-03T23:53:00.692Z,24.42
2024-01-03T23:55:08.180Z,19.88
2024-01-03T23:57:17.131Z,12.70
2024-01-03T23:59:24.452Z,18.17
